createdAt,value
2023-04-06T00:00:50.636Z,100.00
2023-04-06T00:03:17.889Z,100.00
2023-04-06T00:05:44.628Z,100.00
2023-04-06T00:08:11.582Z,100.00
2023-04-06T00:10:38.176Z,100.00
2023-04-06T00:13:04.995Z,100.00
2023-04-06T00:15:31.720Z,100.00
2023-04-06T00:21:54.263Z,100.00
2023-04-06T00:24:21.062Z,100.00
2023-04-06T00:26:47.678Z,100.00
2023-04-06T00:29:14.430Z,100.00
2023-04-06T00:31:41.133Z,100.00
2023-04-06T00:34:07.830Z,100.00
2023-04-06T00:36:34.539Z,100.00
2023-04-06T00:39:01.454Z,100.00
2023-04-06T00:41:28.218Z,100.00
2023-04-06T00:43:55.750Z,100.00
2023-04-06T00:46:22.438Z,100.00
2023-04-06T00:48:49.121Z,100.00
2023-04-06T00:51:15.883Z,100.00
2023-04-06T00:53:42.583Z,100.00
2023-04-06T00:56:10.976Z,100.00
2023-04-06T00:58:48.513Z,100.00
2023-04-06T01:01:15.385Z,100.00
2023-04-06T01:03:43.324Z,100.00
2023-04-06T01:06:12.626Z,100.00
2023-04-06T01:08:41.162Z,100.00
2023-04-06T01:11:18.823Z,100.00
2023-04-06T01:13:47.249Z,100.00
2023-04-06T01:16:22.254Z,100.00
2023-04-06T01:19:02.796Z,100.00
2023-04-06T01:21:32.464Z,100.00
2023-04-06T01:24:22.869Z,100.00
2023-04-06T01:27:01.800Z,100.00
2023-04-06T01:29:35.733Z,100.00
2023-04-06T01:32:05.568Z,100.00
2023-04-06T01:34:37.623Z,100.00
2023-04-06T01:37:06.138Z,100.00
2023-04-06T01:39:32.957Z,100.00
2023-04-06T01:42:02.221Z,100.00
2023-04-06T01:44:31.521Z,100.00
2023-04-06T01:47:07.419Z,100.00
2023-04-06T01:49:34.772Z,100.00
2023-04-06T01:52:01.717Z,100.00
2023-04-06T01:54:28.627Z,100.00
2023-04-06T01:57:13.892Z,100.00
2023-04-06T01:59:47.901Z,100.00
2023-04-06T02:02:40.327Z,100.00
2023-04-06T02:05:13.370Z,100.00
2023-04-06T02:07:41.118Z,100.00
2023-04-06T02:10:16.250Z,100.00
2023-04-06T02:12:44.575Z,100.00
2023-04-06T02:15:16.331Z,100.00
2023-04-06T02:17:43.707Z,100.00
2023-04-06T02:20:10.700Z,100.00
2023-04-06T02:22:37.346Z,100.00
2023-04-06T02:25:04.265Z,100.00
2023-04-06T02:27:31.098Z,100.00
2023-04-06T02:29:58.639Z,100.00
2023-04-06T02:32:25.645Z,100.00
2023-04-06T02:34:53.249Z,100.00
2023-04-06T02:37:21.597Z,100.00
2023-04-06T02:39:48.307Z,100.00
2023-04-06T02:42:16.333Z,100.00
2023-04-06T02:44:44.698Z,100.00
2023-04-06T02:47:11.872Z,100.00
2023-04-06T02:49:41.173Z,100.00
2023-04-06T02:52:08.216Z,100.00
2023-04-06T02:54:36.412Z,100.00
2023-04-06T02:57:04.166Z,100.00
2023-04-06T02:59:37.955Z,100.00
2023-04-06T03:02:27.483Z,100.00
2023-04-06T03:05:04.352Z,100.00
2023-04-06T03:07:35.734Z,100.00
2023-04-06T03:10:02.465Z,100.00
2023-04-06T03:12:31.507Z,100.00
2023-04-06T03:15:16.524Z,100.00
2023-04-06T03:17:48.295Z,100.00
2023-04-06T03:20:30.560Z,100.00
2023-04-06T03:22:57.326Z,100.00
2023-04-06T03:25:27.911Z,100.00
2023-04-06T03:27:59.321Z,100.00
2023-04-06T03:30:27.533Z,100.00
2023-04-06T03:32:54.271Z,100.00
2023-04-06T03:35:23.278Z,100.00
2023-04-06T03:37:50.631Z,100.00
2023-04-06T03:40:17.582Z,100.00
2023-04-06T03:42:44.284Z,100.00
2023-04-06T03:45:14.957Z,100.00
2023-04-06T03:47:47.126Z,100.00
2023-04-06T03:50:14.405Z,100.00
2023-04-06T03:52:41.312Z,100.00
2023-04-06T03:55:08.748Z,100.00
2023-04-06T03:57:36.799Z,100.00
2023-04-06T04:00:03.809Z,100.00
2023-04-06T04:02:39.536Z,100.00
2023-04-06T04:05:06.771Z,100.00
2023-04-06T04:07:33.334Z,100.00
2023-04-06T04:10:00.693Z,100.00
2023-04-06T04:12:27.794Z,100.00
2023-04-06T04:14:54.444Z,100.00
2023-04-06T04:17:23.075Z,100.00
2023-04-06T04:19:49.741Z,100.00
2023-04-06T04:22:16.834Z,100.00
2023-04-06T04:24:44.211Z,100.00
2023-04-06T04:27:11.021Z,100.00
2023-04-06T04:29:39.018Z,100.00
2023-04-06T04:32:09.013Z,100.00
2023-04-06T04:34:36.504Z,100.00
2023-04-06T04:37:05.544Z,100.00
2023-04-06T04:39:48.051Z,100.00
2023-04-06T04:42:15.340Z,100.00
2023-04-06T04:44:47.229Z,100.00
2023-04-06T04:47:18.214Z,100.00
2023-04-06T04:49:46.789Z,100.00
2023-04-06T04:52:19.012Z,100.00
2023-04-06T04:54:57.253Z,100.00
2023-04-06T04:57:27.932Z,100.00
2023-04-06T04:59:55.533Z,100.00
2023-04-06T05:02:24.171Z,100.00
2023-04-06T05:05:17.065Z,100.00
2023-04-06T05:07:44.023Z,100.00
2023-04-06T05:10:18.674Z,100.00
2023-04-06T05:12:58.852Z,100.00
2023-04-06T05:15:28.708Z,100.00
2023-04-06T05:18:02.318Z,100.00
2023-04-06T05:20:33.198Z,100.00
2023-04-06T05:23:00.412Z,100.00
2023-04-06T05:25:27.614Z,100.00
2023-04-06T05:27:57.587Z,100.00
2023-04-06T05:30:31.463Z,100.00
2023-04-06T05:32:59.909Z,100.00
2023-04-06T05:35:32.374Z,100.00
2023-04-06T05:38:09.451Z,100.00
2023-04-06T05:40:36.657Z,100.00
2023-04-06T05:43:03.444Z,100.00
2023-04-06T05:45:31.157Z,100.00
2023-04-06T05:47:58.782Z,100.00
2023-04-06T05:50:29.679Z,100.00
2023-04-06T05:52:57.468Z,100.00
2023-04-06T05:55:29.332Z,100.00
2023-04-06T05:58:08.232Z,100.00
2023-04-06T06:00:35.413Z,100.00
2023-04-06T06:03:06.975Z,100.00
2023-04-06T06:05:35.810Z,100.00
2023-04-06T06:08:11.197Z,100.00
2023-04-06T06:10:39.401Z,100.00
2023-04-06T06:13:09.186Z,100.00
2023-04-06T06:15:36.144Z,100.00
2023-04-06T06:18:03.144Z,100.00
2023-04-06T06:20:30.743Z,100.00
2023-04-06T06:23:01.588Z,100.00
2023-04-06T06:25:28.287Z,100.00
2023-04-06T06:27:55.251Z,100.00
2023-04-06T06:30:23.450Z,99.99
2023-04-06T06:32:51.645Z,98.12
2023-04-06T06:35:19.544Z,94.50
2023-04-06T06:37:48.012Z,95.69
2023-04-06T06:40:19.002Z,91.52
2023-04-06T06:42:47.631Z,91.27
2023-04-06T06:45:34.589Z,88.83
2023-04-06T06:48:01.359Z,88.63
2023-04-06T06:50:28.533Z,86.13
2023-04-06T06:52:55.658Z,83.22
2023-04-06T06:55:22.353Z,85.57
2023-04-06T06:57:49.724Z,86.22
2023-04-06T07:00:16.709Z,87.31
2023-04-06T07:02:46.065Z,86.98
2023-04-06T07:05:26.235Z,88.55
2023-04-06T07:07:56.410Z,89.54
2023-04-06T07:10:23.269Z,89.69
2023-04-06T07:12:50.108Z,89.43
2023-04-06T07:15:18.442Z,87.85
2023-04-06T07:17:48.257Z,87.67
2023-04-06T07:20:15.666Z,86.26
2023-04-06T07:22:44.522Z,83.93
2023-04-06T07:25:11.403Z,86.22
2023-04-06T07:27:38.071Z,81.83
2023-04-06T07:30:05.522Z,81.43
2023-04-06T07:32:32.362Z,82.90
2023-04-06T07:34:59.379Z,78.22
2023-04-06T07:37:26.175Z,75.16
2023-04-06T07:39:53.240Z,75.10
2023-04-06T07:42:19.966Z,71.52
2023-04-06T07:44:46.893Z,72.77
2023-04-06T07:47:13.550Z,70.23
2023-04-06T07:49:40.284Z,67.30
2023-04-06T07:52:07.139Z,64.79
2023-04-06T07:54:34.073Z,64.41
2023-04-06T07:57:00.884Z,65.78
2023-04-06T07:59:27.575Z,66.33
2023-04-06T08:01:54.287Z,66.52
2023-04-06T08:04:21.510Z,67.47
2023-04-06T08:06:48.182Z,67.89
2023-04-06T08:09:14.852Z,68.81
2023-04-06T08:14:44.387Z,70.67
2023-04-06T08:17:11.369Z,68.81
2023-04-06T08:19:38.632Z,66.80
2023-04-06T08:22:06.724Z,67.14
2023-04-06T08:24:33.462Z,66.85
2023-04-06T08:27:00.201Z,65.10
2023-04-06T08:29:26.862Z,65.12
2023-04-06T08:31:53.496Z,65.53
2023-04-06T08:34:20.181Z,63.29
2023-04-06T08:36:47.738Z,61.92
2023-04-06T08:39:14.438Z,62.32
2023-04-06T08:41:45.012Z,61.48
2023-04-06T08:44:12.546Z,61.19
2023-04-06T08:46:39.232Z,60.02
2023-04-06T08:49:07.845Z,59.19
2023-04-06T08:51:38.328Z,60.55
2023-04-06T08:54:06.156Z,60.88
2023-04-06T08:56:32.951Z,60.94
2023-04-06T08:59:00.125Z,59.73
2023-04-06T09:01:28.445Z,59.95
2023-04-06T09:04:00.197Z,60.01
2023-04-06T09:06:31.879Z,58.46
2023-04-06T09:08:59.048Z,55.93
2023-04-06T09:11:26.120Z,51.74
2023-04-06T09:13:55.213Z,50.40
2023-04-06T09:16:22.830Z,48.21
2023-04-06T09:18:50.622Z,48.88
2023-04-06T09:21:19.383Z,49.34
2023-04-06T09:23:46.288Z,49.19
2023-04-06T09:26:18.024Z,46.91
2023-04-06T09:28:48.673Z,47.09
2023-04-06T09:31:17.079Z,45.75
2023-04-06T09:33:46.154Z,46.00
2023-04-06T09:36:13.181Z,46.59
2023-04-06T09:38:51.762Z,46.74
2023-04-06T09:41:29.049Z,47.13
2023-04-06T09:44:06.222Z,48.35
2023-04-06T09:46:58.891Z,48.32
2023-04-06T09:49:31.956Z,48.02
2023-04-06T09:52:01.237Z,47.49
2023-04-06T09:54:30.489Z,47.15
2023-04-06T09:57:04.503Z,46.11
2023-04-06T09:59:38.909Z,46.87
2023-04-06T10:02:09.397Z,47.53
2023-04-06T10:04:57.688Z,48.30
2023-04-06T10:07:24.576Z,48.15
2023-04-06T10:09:53.254Z,48.16
2023-04-06T10:12:20.431Z,48.83
2023-04-06T10:14:47.652Z,47.90
2023-04-06T10:17:14.192Z,48.24
2023-04-06T10:20:04.990Z,47.91
2023-04-06T10:22:46.756Z,48.81
2023-04-06T10:25:13.581Z,48.29
2023-04-06T10:27:40.275Z,47.66
2023-04-06T10:30:07.862Z,48.45
2023-04-06T10:32:36.783Z,48.56
2023-04-06T10:35:11.102Z,47.38
2023-04-06T10:38:02.167Z,48.19
2023-04-06T10:40:34.721Z,46.95
2023-04-06T10:43:11.348Z,47.16
2023-04-06T10:45:41.123Z,45.93
2023-04-06T10:48:15.976Z,45.78
2023-04-06T10:50:49.619Z,47.19
2023-04-06T10:53:27.207Z,48.12
2023-04-06T10:55:57.846Z,47.09
2023-04-06T10:58:28.563Z,47.45
2023-04-06T11:00:56.678Z,47.28
2023-04-06T11:03:24.079Z,47.96
2023-04-06T11:05:52.292Z,48.13
2023-04-06T11:08:32.427Z,49.42
2023-04-06T11:11:27.509Z,49.03
2023-04-06T11:13:56.089Z,50.41
2023-04-06T11:16:31.490Z,51.55
2023-04-06T11:19:09.567Z,52.82
2023-04-06T11:21:37.819Z,55.67
2023-04-06T11:24:12.018Z,56.38
2023-04-06T11:26:42.873Z,58.23
2023-04-06T11:29:09.985Z,63.06
2023-04-06T11:31:45.590Z,65.62
2023-04-06T11:34:24.741Z,68.53
2023-04-06T11:37:17.872Z,69.96
2023-04-06T11:39:53.324Z,74.31
2023-04-06T11:42:28.823Z,76.99
2023-04-06T11:44:59.642Z,80.52
2023-04-06T11:47:38.587Z,86.75
2023-04-06T11:50:10.754Z,93.71
2023-04-06T11:52:39.004Z,96.49
2023-04-06T11:55:37.992Z,100.00
2023-04-06T11:58:04.914Z,100.00
2023-04-06T12:00:35.455Z,100.00
2023-04-06T12:03:03.518Z,100.00
2023-04-06T12:05:33.245Z,100.00
2023-04-06T12:08:03.791Z,100.00
2023-04-06T12:10:31.106Z,100.00
2023-04-06T12:12:57.849Z,100.00
2023-04-06T12:15:24.634Z,100.00
2023-04-06T12:17:51.369Z,100.00
2023-04-06T12:20:26.387Z,100.00
2023-04-06T12:22:54.303Z,100.00
2023-04-06T12:25:21.425Z,100.00
2023-04-06T12:27:48.365Z,100.00
2023-04-06T12:30:15.946Z,100.00
2023-04-06T12:32:42.625Z,100.00
2023-04-06T12:35:10.617Z,100.00
2023-04-06T12:37:37.820Z,100.00
2023-04-06T12:40:05.245Z,100.00
2023-04-06T12:42:32.187Z,100.00
2023-04-06T12:44:58.896Z,100.00
2023-04-06T12:47:27.410Z,100.00
2023-04-06T12:49:55.918Z,100.00
2023-04-06T12:52:22.622Z,100.00
2023-04-06T12:54:51.162Z,100.00
2023-04-06T12:57:18.244Z,100.00
2023-04-06T12:59:45.629Z,100.00
2023-04-06T13:02:12.982Z,100.00
2023-04-06T13:04:39.994Z,100.00
2023-04-06T13:07:07.046Z,100.00
2023-04-06T13:09:33.800Z,100.00
2023-04-06T13:12:00.543Z,100.00
2023-04-06T13:14:27.303Z,100.00
2023-04-06T13:16:54.158Z,100.00
2023-04-06T13:19:20.991Z,100.00
2023-04-06T13:21:47.863Z,100.00
2023-04-06T13:24:16.435Z,100.00
2023-04-06T13:26:44.257Z,100.00
2023-04-06T13:29:10.926Z,100.00
2023-04-06T13:31:37.746Z,100.00
2023-04-06T13:34:04.462Z,100.00
2023-04-06T13:36:32.613Z,100.00
2023-04-06T13:38:59.788Z,100.00
2023-04-06T13:41:27.360Z,100.00
2023-04-06T13:43:54.019Z,100.00
2023-04-06T13:46:21.802Z,100.00
2023-04-06T13:48:48.961Z,100.00
2023-04-06T13:51:16.311Z,100.00
2023-04-06T13:53:43.165Z,100.00
2023-04-06T13:56:10.324Z,100.00
2023-04-06T13:58:37.228Z,100.00
2023-04-06T14:01:08.735Z,100.00
2023-04-06T14:03:36.628Z,100.00
2023-04-06T14:06:20.868Z,100.00
2023-04-06T14:08:57.869Z,100.00
2023-04-06T14:11:24.517Z,100.00
2023-04-06T14:13:51.159Z,100.00
2023-04-06T14:16:20.495Z,100.00
2023-04-06T14:18:47.414Z,100.00
2023-04-06T14:21:13.960Z,100.00
2023-04-06T14:23:40.952Z,100.00
2023-04-06T14:26:09.331Z,100.00
2023-04-06T14:28:36.986Z,100.00
2023-04-06T14:31:11.540Z,100.00
2023-04-06T14:33:38.112Z,100.00
2023-04-06T14:36:05.911Z,100.00
2023-04-06T14:38:33.314Z,100.00
2023-04-06T14:40:59.982Z,100.00
2023-04-06T14:43:27.057Z,100.00
2023-04-06T14:45:54.108Z,100.00
2023-04-06T14:48:20.891Z,100.00
2023-04-06T14:50:54.513Z,100.00
2023-04-06T14:53:21.557Z,100.00
2023-04-06T14:55:48.378Z,100.00
2023-04-06T14:58:15.342Z,100.00
2023-04-06T15:00:42.266Z,100.00
2023-04-06T15:03:09.422Z,100.00
2023-04-06T15:05:36.484Z,100.00
2023-04-06T15:08:03.303Z,100.00
2023-04-06T15:10:32.920Z,100.00
2023-04-06T15:13:00.372Z,100.00
2023-04-06T15:15:39.643Z,100.00
2023-04-06T15:18:10.462Z,100.00
2023-04-06T15:20:37.721Z,100.00
2023-04-06T15:23:05.246Z,100.00
2023-04-06T15:25:32.094Z,100.00
2023-04-06T15:28:00.333Z,100.00
2023-04-06T15:30:28.346Z,100.00
2023-04-06T15:33:02.362Z,100.00
2023-04-06T15:35:30.091Z,100.00
2023-04-06T15:37:57.888Z,100.00
2023-04-06T15:40:25.472Z,100.00
2023-04-06T15:42:52.421Z,100.00
2023-04-06T15:45:19.258Z,100.00
2023-04-06T15:47:46.526Z,100.00
2023-04-06T15:50:14.230Z,100.00
2023-04-06T15:52:41.308Z,100.00
2023-04-06T15:55:09.270Z,100.00
2023-04-06T15:57:36.117Z,100.00
2023-04-06T16:00:05.023Z,100.00
2023-04-06T16:02:36.240Z,100.00
2023-04-06T16:05:04.179Z,100.00
2023-04-06T16:10:17.285Z,100.00
2023-04-06T16:12:43.943Z,100.00
2023-04-06T16:15:36.366Z,100.00
2023-04-06T16:18:31.424Z,100.00
2023-04-06T16:20:59.645Z,100.00
2023-04-06T16:23:27.208Z,100.00
2023-04-06T16:25:54.928Z,100.00
2023-04-06T16:28:23.224Z,100.00
2023-04-06T16:30:49.888Z,100.00
2023-04-06T16:33:19.139Z,100.00
2023-04-06T16:35:46.865Z,100.00
2023-04-06T16:38:14.433Z,100.00
2023-04-06T16:40:41.095Z,100.00
2023-04-06T16:43:09.905Z,100.00
2023-04-06T16:45:37.862Z,100.00
2023-04-06T16:48:04.741Z,100.00
2023-04-06T16:50:31.468Z,100.00
2023-04-06T16:52:58.534Z,100.00
2023-04-06T16:55:25.399Z,100.00
2023-04-06T16:57:55.834Z,100.00
2023-04-06T17:00:22.849Z,100.00
2023-04-06T17:02:49.732Z,100.00
2023-04-06T17:05:20.654Z,100.00
2023-04-06T17:07:47.491Z,100.00
2023-04-06T17:10:14.136Z,100.00
2023-04-06T17:12:40.847Z,100.00
2023-04-06T17:15:08.224Z,100.00
2023-04-06T17:17:34.923Z,100.00
2023-04-06T17:20:01.663Z,100.00
2023-04-06T17:22:28.307Z,100.00
2023-04-06T17:24:55.290Z,100.00
2023-04-06T17:27:23.567Z,100.00
2023-04-06T17:29:50.596Z,100.00
2023-04-06T17:32:19.457Z,100.00
2023-04-06T17:34:46.116Z,100.00
2023-04-06T17:37:12.781Z,100.00
2023-04-06T17:39:39.420Z,100.00
2023-04-06T17:42:06.188Z,100.00
2023-04-06T17:44:33.422Z,100.00
2023-04-06T17:47:00.378Z,100.00
2023-04-06T17:49:26.965Z,100.00
2023-04-06T17:51:53.582Z,100.00
2023-04-06T17:54:20.151Z,100.00
2023-04-06T17:56:49.082Z,100.00
2023-04-06T17:59:15.670Z,100.00
2023-04-06T18:01:42.431Z,100.00
2023-04-06T18:04:09.272Z,100.00
2023-04-06T18:06:36.921Z,100.00
2023-04-06T18:09:03.833Z,100.00
2023-04-06T18:11:31.681Z,100.00
2023-04-06T18:13:59.546Z,100.00
2023-04-06T18:16:26.511Z,100.00
2023-04-06T18:18:53.172Z,100.00
2023-04-06T18:21:19.797Z,100.00
2023-04-06T18:23:46.601Z,100.00
2023-04-06T18:26:18.483Z,100.00
2023-04-06T18:28:45.719Z,100.00
2023-04-06T18:31:12.393Z,100.00
2023-04-06T18:33:39.182Z,100.00
2023-04-06T18:36:06.221Z,100.00
2023-04-06T18:38:32.854Z,100.00
2023-04-06T18:40:59.502Z,100.00
2023-04-06T18:43:26.239Z,100.00
2023-04-06T18:45:53.871Z,100.00
2023-04-06T18:48:20.544Z,100.00
2023-04-06T18:51:01.881Z,100.00
2023-04-06T18:53:28.907Z,100.00
2023-04-06T18:55:59.360Z,100.00
2023-04-06T18:58:26.626Z,100.00
2023-04-06T19:00:54.241Z,100.00
2023-04-06T19:03:22.150Z,100.00
2023-04-06T19:05:49.400Z,100.00
2023-04-06T19:08:16.356Z,100.00
2023-04-06T19:10:42.938Z,100.00
2023-04-06T19:13:09.662Z,100.00
2023-04-06T19:15:36.373Z,100.00
2023-04-06T19:18:03.362Z,100.00
2023-04-06T19:20:33.999Z,100.00
2023-04-06T19:23:00.957Z,100.00
2023-04-06T19:25:27.608Z,100.00
2023-04-06T19:27:54.478Z,100.00
2023-04-06T19:30:21.249Z,100.00
2023-04-06T19:32:47.911Z,100.00
2023-04-06T19:35:14.583Z,100.00
2023-04-06T19:37:43.397Z,100.00
2023-04-06T19:40:10.661Z,100.00
2023-04-06T19:42:38.795Z,100.00
2023-04-06T19:45:06.546Z,100.00
2023-04-06T19:47:35.217Z,100.00
2023-04-06T19:50:03.743Z,100.00
2023-04-06T19:52:31.419Z,100.00
2023-04-06T19:54:59.277Z,100.00
2023-04-06T19:57:26.242Z,100.00
2023-04-06T19:59:56.350Z,100.00
2023-04-06T20:02:23.040Z,100.00
2023-04-06T20:04:49.831Z,100.00
2023-04-06T20:07:16.540Z,100.00
2023-04-06T20:09:43.203Z,100.00
2023-04-06T20:12:10.313Z,100.00
2023-04-06T20:14:36.969Z,100.00
2023-04-06T20:17:03.685Z,100.00
2023-04-06T20:19:30.379Z,100.00
2023-04-06T20:21:57.781Z,100.00
2023-04-06T20:24:24.521Z,100.00
2023-04-06T20:26:51.176Z,100.00
2023-04-06T20:29:17.848Z,100.00
2023-04-06T20:31:44.433Z,100.00
2023-04-06T20:34:11.100Z,100.00
2023-04-06T20:36:37.977Z,100.00
2023-04-06T20:39:04.631Z,100.00
2023-04-06T20:41:31.166Z,100.00
2023-04-06T20:43:58.172Z,100.00
2023-04-06T20:46:25.232Z,100.00
2023-04-06T20:48:52.893Z,100.00
2023-04-06T20:51:23.047Z,100.00
2023-04-06T20:53:49.657Z,100.00
2023-04-06T20:56:16.201Z,100.00
2023-04-06T20:58:42.854Z,100.00
2023-04-06T21:01:14.956Z,100.00
2023-04-06T21:03:43.061Z,100.00
2023-04-06T21:06:11.292Z,100.00
2023-04-06T21:08:38.115Z,100.00
2023-04-06T21:11:05.117Z,100.00
2023-04-06T21:13:32.462Z,100.00
2023-04-06T21:15:59.667Z,100.00
2023-04-06T21:18:26.484Z,100.00
2023-04-06T21:20:53.151Z,100.00
2023-04-06T21:23:19.826Z,100.00
2023-04-06T21:25:46.497Z,100.00
2023-04-06T21:28:13.098Z,100.00
2023-04-06T21:30:39.911Z,100.00
2023-04-06T21:33:07.490Z,100.00
2023-04-06T21:35:38.456Z,100.00
2023-04-06T21:38:05.011Z,100.00
2023-04-06T21:40:31.574Z,100.00
2023-04-06T21:42:58.123Z,100.00
2023-04-06T21:45:25.113Z,100.00
2023-04-06T21:47:52.864Z,100.00
2023-04-06T21:50:19.496Z,100.00
2023-04-06T21:52:47.143Z,100.00
2023-04-06T21:55:13.840Z,100.00
2023-04-06T21:57:40.597Z,100.00
2023-04-06T22:00:09.878Z,100.00
2023-04-06T22:02:42.166Z,100.00
2023-04-06T22:05:09.431Z,100.00
2023-04-06T22:07:36.138Z,100.00
2023-04-06T22:10:02.874Z,100.00
2023-04-06T22:12:29.465Z,100.00
2023-04-06T22:14:56.073Z,100.00
2023-04-06T22:17:22.787Z,100.00
2023-04-06T22:19:49.509Z,100.00
2023-04-06T22:22:16.301Z,100.00
2023-04-06T22:24:42.952Z,100.00
2023-04-06T22:27:09.630Z,100.00
2023-04-06T22:29:36.315Z,100.00
2023-04-06T22:32:03.052Z,100.00
2023-04-06T22:34:29.712Z,100.00
2023-04-06T22:36:57.146Z,100.00
2023-04-06T22:39:23.792Z,100.00
2023-04-06T22:41:50.483Z,100.00
2023-04-06T22:44:17.201Z,100.00
2023-04-06T22:46:44.049Z,100.00
2023-04-06T22:49:10.739Z,100.00
2023-04-06T22:51:37.243Z,100.00
2023-04-06T22:54:04.876Z,100.00
2023-04-06T22:56:31.477Z,100.00
2023-04-06T22:58:58.071Z,100.00
2023-04-06T23:01:24.725Z,100.00
2023-04-06T23:03:51.523Z,100.00
2023-04-06T23:06:19.142Z,100.00
2023-04-06T23:08:47.002Z,100.00
2023-04-06T23:11:13.935Z,100.00
2023-04-06T23:13:40.596Z,100.00
2023-04-06T23:16:09.175Z,100.00
2023-04-06T23:18:35.774Z,100.00
2023-04-06T23:21:02.849Z,100.00
2023-04-06T23:23:29.463Z,100.00
2023-04-06T23:25:56.280Z,100.00
2023-04-06T23:28:22.990Z,100.00
2023-04-06T23:30:49.659Z,100.00
2023-04-06T23:33:16.344Z,100.00
2023-04-06T23:35:42.995Z,100.00
2023-04-06T23:38:09.652Z,100.00
2023-04-06T23:40:39.423Z,100.00
2023-04-06T23:43:06.253Z,100.00
2023-04-06T23:45:33.105Z,100.00
2023-04-06T23:47:59.830Z,100.00
2023-04-06T23:50:26.525Z,100.00
2023-04-06T23:52:53.148Z,100.00
2023-04-06T23:55:19.778Z,100.00
2023-04-06T23:57:46.309Z,100.00
